createdAt,value
2023-01-21T00:00:16.603Z,100.00
2023-01-21T00:02:44.273Z,100.00
2023-01-21T00:05:11.785Z,100.00
2023-01-21T00:07:40.689Z,100.00
2023-01-21T00:10:08.520Z,100.00
2023-01-21T00:12:36.194Z,100.00
2023-01-21T00:15:03.756Z,100.00
2023-01-21T00:17:35.338Z,100.00
2023-01-21T00:20:02.989Z,100.00
2023-01-21T00:22:30.461Z,100.00
2023-01-21T00:24:59.285Z,100.00
2023-01-21T00:27:26.863Z,100.00
2023-01-21T00:29:54.391Z,100.00
2023-01-21T00:32:21.886Z,100.00
2023-01-21T00:34:49.396Z,100.00
2023-01-21T00:37:16.905Z,100.00
2023-01-21T00:39:44.354Z,100.00
2023-01-21T00:42:13.179Z,100.00
2023-01-21T00:44:40.636Z,100.00
2023-01-21T00:47:08.445Z,100.00
2023-01-21T00:49:35.985Z,100.00
2023-01-21T00:52:03.443Z,100.00
2023-01-21T00:54:32.293Z,100.00
2023-01-21T00:56:59.787Z,100.00
2023-01-21T00:59:29.951Z,100.00
2023-01-21T01:01:57.445Z,100.00
2023-01-21T01:04:24.907Z,100.00
2023-01-21T01:06:52.464Z,100.00
2023-01-21T01:09:19.922Z,100.00
2023-01-21T01:11:47.393Z,100.00
2023-01-21T01:14:14.890Z,100.00
2023-01-21T01:16:43.775Z,100.00
2023-01-21T01:19:11.819Z,100.00
2023-01-21T01:21:39.413Z,100.00
2023-01-21T01:24:07.181Z,100.00
2023-01-21T01:26:35.495Z,100.00
2023-01-21T01:29:03.257Z,100.00
2023-01-21T01:31:30.752Z,100.00
2023-01-21T01:33:59.663Z,100.00
2023-01-21T01:36:27.118Z,100.00
2023-01-21T01:38:54.787Z,100.00
2023-01-21T01:41:22.997Z,100.00
2023-01-21T01:43:58.133Z,100.00
2023-01-21T01:46:26.278Z,100.00
2023-01-21T01:48:55.169Z,100.00
2023-01-21T01:51:24.658Z,100.00
2023-01-21T01:53:52.146Z,100.00
2023-01-21T01:56:19.662Z,100.00
2023-01-21T01:58:47.172Z,100.00
2023-01-21T02:01:14.659Z,100.00
2023-01-21T02:03:45.316Z,100.00
2023-01-21T02:06:12.938Z,100.00
2023-01-21T02:08:41.834Z,100.00
2023-01-21T02:11:12.750Z,100.00
2023-01-21T02:13:40.350Z,100.00
2023-01-21T02:16:17.500Z,100.00
2023-01-21T02:18:46.258Z,100.00
2023-01-21T02:21:31.682Z,100.00
2023-01-21T02:24:10.891Z,100.00
2023-01-21T02:26:47.304Z,100.00
2023-01-21T02:29:35.502Z,100.00
2023-01-21T02:32:11.881Z,100.00
2023-01-21T02:34:41.422Z,100.00
2023-01-21T02:37:10.984Z,100.00
2023-01-21T02:39:45.889Z,100.00
2023-01-21T02:42:13.820Z,100.00
2023-01-21T02:44:41.908Z,100.00
2023-01-21T02:47:15.985Z,100.00
2023-01-21T02:49:45.518Z,100.00
2023-01-21T02:52:17.908Z,100.00
2023-01-21T02:54:49.715Z,100.00
2023-01-21T02:57:17.754Z,100.00
2023-01-21T02:59:45.737Z,100.00
2023-01-21T03:02:14.297Z,100.00
2023-01-21T03:04:46.795Z,100.00
2023-01-21T03:07:14.656Z,100.00
2023-01-21T03:09:42.207Z,100.00
2023-01-21T03:12:17.473Z,100.00
2023-01-21T03:15:03.750Z,100.00
2023-01-21T03:17:33.500Z,100.00
2023-01-21T03:20:03.630Z,100.00
2023-01-21T03:22:32.680Z,100.00
2023-01-21T03:25:00.707Z,100.00
2023-01-21T03:27:28.348Z,100.00
2023-01-21T03:29:57.629Z,100.00
2023-01-21T03:32:25.183Z,100.00
2023-01-21T03:34:52.890Z,100.00
2023-01-21T03:37:23.813Z,100.00
2023-01-21T03:39:53.600Z,100.00
2023-01-21T03:42:21.203Z,100.00
2023-01-21T03:44:48.690Z,100.00
2023-01-21T03:47:18.392Z,100.00
2023-01-21T03:49:46.365Z,100.00
2023-01-21T03:52:13.982Z,100.00
2023-01-21T03:54:42.825Z,100.00
2023-01-21T03:57:10.332Z,100.00
2023-01-21T03:59:37.795Z,100.00
2023-01-21T04:02:05.318Z,100.00
2023-01-21T04:04:32.864Z,100.00
2023-01-21T04:07:00.388Z,100.00
2023-01-21T04:09:27.935Z,100.00
2023-01-21T04:11:57.744Z,100.00
2023-01-21T04:14:25.365Z,100.00
2023-01-21T04:16:52.827Z,100.00
2023-01-21T04:19:20.298Z,100.00
2023-01-21T04:21:47.741Z,100.00
2023-01-21T04:24:15.234Z,100.00
2023-01-21T04:26:42.729Z,100.00
2023-01-21T04:29:11.559Z,100.00
2023-01-21T04:31:39.044Z,100.00
2023-01-21T04:34:06.563Z,100.00
2023-01-21T04:36:34.056Z,100.00
2023-01-21T04:39:01.598Z,100.00
2023-01-21T04:41:29.102Z,100.00
2023-01-21T04:43:56.600Z,100.00
2023-01-21T04:46:25.475Z,100.00
2023-01-21T04:48:53.189Z,100.00
2023-01-21T04:51:20.879Z,100.00
2023-01-21T04:53:48.390Z,100.00
2023-01-21T04:56:15.973Z,100.00
2023-01-21T04:58:43.494Z,100.00
2023-01-21T05:01:11.070Z,100.00
2023-01-21T05:03:39.926Z,100.00
2023-01-21T05:06:07.663Z,100.00
2023-01-21T05:08:35.189Z,100.00
2023-01-21T05:11:02.659Z,100.00
2023-01-21T05:13:30.127Z,100.00
2023-01-21T05:15:57.658Z,100.00
2023-01-21T05:18:25.240Z,100.00
2023-01-21T05:20:55.538Z,100.00
2023-01-21T05:23:23.090Z,100.00
2023-01-21T05:25:50.593Z,100.00
2023-01-21T05:28:18.066Z,100.00
2023-01-21T05:30:45.629Z,100.00
2023-01-21T05:33:13.178Z,100.00
2023-01-21T05:35:40.697Z,100.00
2023-01-21T05:38:09.532Z,100.00
2023-01-21T05:40:37.053Z,100.00
2023-01-21T05:43:04.521Z,100.00
2023-01-21T05:45:32.055Z,100.00
2023-01-21T05:47:59.559Z,100.00
2023-01-21T05:50:27.049Z,100.00
2023-01-21T05:52:54.555Z,100.00
2023-01-21T05:55:23.447Z,100.00
2023-01-21T05:57:51.325Z,100.00
2023-01-21T06:00:19.649Z,100.00
2023-01-21T06:02:47.364Z,100.00
2023-01-21T06:05:14.924Z,100.00
2023-01-21T06:07:42.382Z,100.00
2023-01-21T06:10:10.358Z,100.00
2023-01-21T06:12:39.227Z,100.00
2023-01-21T06:15:07.390Z,100.00
2023-01-21T06:17:34.872Z,100.00
2023-01-21T06:20:02.368Z,100.00
2023-01-21T06:22:29.875Z,100.00
2023-01-21T06:24:57.366Z,100.00
2023-01-21T06:27:24.952Z,100.00
2023-01-21T06:29:53.793Z,100.00
2023-01-21T06:32:21.394Z,100.00
2023-01-21T06:34:48.929Z,100.00
2023-01-21T06:37:16.478Z,100.00
2023-01-21T06:39:43.945Z,100.00
2023-01-21T06:42:11.468Z,100.00
2023-01-21T06:44:38.940Z,100.00
2023-01-21T06:47:07.805Z,100.00
2023-01-21T06:49:35.358Z,100.00
2023-01-21T06:52:02.856Z,100.00
2023-01-21T06:54:30.684Z,100.00
2023-01-21T06:56:58.289Z,100.00
2023-01-21T06:59:25.843Z,100.00
2023-01-21T07:01:53.579Z,100.00
2023-01-21T07:04:22.442Z,100.00
2023-01-21T07:06:50.036Z,100.00
2023-01-21T07:09:17.505Z,100.00
2023-01-21T07:11:45.039Z,100.00
2023-01-21T07:14:12.654Z,100.00
2023-01-21T07:16:40.175Z,100.00
2023-01-21T07:19:07.862Z,100.00
2023-01-21T07:21:36.715Z,100.00
2023-01-21T07:24:04.362Z,100.00
2023-01-21T07:26:36.164Z,100.00
2023-01-21T07:29:03.711Z,100.00
2023-01-21T07:31:31.369Z,100.00
2023-01-21T07:33:58.946Z,100.00
2023-01-21T07:36:26.666Z,100.00
2023-01-21T07:38:55.584Z,100.00
2023-01-21T07:41:23.083Z,100.00
2023-01-21T07:43:50.809Z,100.00
2023-01-21T07:46:18.556Z,100.00
2023-01-21T07:48:48.195Z,100.00
2023-01-21T07:51:15.845Z,100.00
2023-01-21T07:53:43.403Z,100.00
2023-01-21T07:56:12.272Z,100.00
2023-01-21T07:58:39.811Z,100.00
2023-01-21T08:01:07.959Z,100.00
2023-01-21T08:03:35.457Z,100.00
2023-01-21T08:06:02.901Z,100.00
2023-01-21T08:08:30.361Z,100.00
2023-01-21T08:10:57.817Z,100.00
2023-01-21T08:13:26.947Z,100.00
2023-01-21T08:15:55.322Z,100.00
2023-01-21T08:18:23.093Z,100.00
2023-01-21T08:20:54.262Z,100.00
2023-01-21T08:23:21.835Z,100.00
2023-01-21T08:25:49.367Z,100.00
2023-01-21T08:28:16.883Z,100.00
2023-01-21T08:30:45.815Z,100.00
2023-01-21T08:33:13.351Z,100.00
2023-01-21T08:35:40.810Z,100.00
2023-01-21T08:38:08.346Z,100.00
2023-01-21T08:40:35.853Z,100.00
2023-01-21T08:43:03.992Z,100.00
2023-01-21T08:45:31.603Z,100.00
2023-01-21T08:48:02.956Z,100.00
2023-01-21T08:50:30.455Z,100.00
2023-01-21T08:52:57.962Z,100.00
2023-01-21T08:55:26.747Z,100.00
2023-01-21T08:57:54.620Z,100.00
2023-01-21T09:00:22.993Z,100.00
2023-01-21T09:02:51.710Z,99.80
2023-01-21T09:05:20.804Z,99.02
2023-01-21T09:07:48.320Z,98.05
2023-01-21T09:10:37.457Z,96.57
2023-01-21T09:13:05.621Z,95.60
2023-01-21T09:15:33.083Z,95.96
2023-01-21T09:18:00.614Z,96.50
2023-01-21T09:20:29.496Z,97.18
2023-01-21T09:22:57.049Z,100.00
2023-01-21T09:25:24.635Z,100.00
2023-01-21T09:27:52.413Z,100.00
2023-01-21T09:30:19.948Z,100.00
2023-01-21T09:32:47.472Z,100.00
2023-01-21T09:35:15.288Z,100.00
2023-01-21T09:37:44.289Z,100.00
2023-01-21T09:40:14.727Z,100.00
2023-01-21T09:42:42.589Z,100.00
2023-01-21T09:45:10.417Z,100.00
2023-01-21T09:47:38.615Z,100.00
2023-01-21T09:50:07.214Z,100.00
2023-01-21T09:52:36.930Z,100.00
2023-01-21T09:55:06.337Z,100.00
2023-01-21T09:57:37.143Z,100.00
2023-01-21T10:00:08.915Z,100.00
2023-01-21T10:02:38.871Z,100.00
2023-01-21T10:05:14.231Z,100.00
2023-01-21T10:07:42.869Z,100.00
2023-01-21T10:10:13.027Z,100.00
2023-01-21T10:12:54.089Z,100.00
2023-01-21T10:15:36.463Z,100.00
2023-01-21T10:18:04.495Z,100.00
2023-01-21T10:20:32.326Z,100.00
2023-01-21T10:23:01.114Z,100.00
2023-01-21T10:25:30.963Z,100.00
2023-01-21T10:27:59.565Z,100.00
2023-01-21T10:30:28.740Z,99.94
2023-01-21T10:32:56.409Z,96.09
2023-01-21T10:35:28.332Z,95.55
2023-01-21T10:37:56.565Z,92.57
2023-01-21T10:40:42.755Z,89.50
2023-01-21T10:43:12.558Z,96.92
2023-01-21T10:45:41.779Z,94.88
2023-01-21T10:48:12.194Z,90.80
2023-01-21T10:50:42.074Z,87.55
2023-01-21T10:53:13.434Z,89.29
2023-01-21T10:55:44.166Z,89.63
2023-01-21T10:58:15.842Z,95.21
2023-01-21T11:00:44.575Z,98.59
2023-01-21T11:03:12.726Z,94.18
2023-01-21T11:05:40.224Z,97.66
2023-01-21T11:08:07.706Z,91.42
2023-01-21T11:10:35.240Z,95.02
2023-01-21T11:13:02.763Z,100.00
2023-01-21T11:15:31.763Z,100.00
2023-01-21T11:17:59.726Z,100.00
2023-01-21T11:20:29.649Z,100.00
2023-01-21T11:22:57.224Z,100.00
2023-01-21T11:25:29.238Z,100.00
2023-01-21T11:27:56.738Z,99.47
2023-01-21T11:30:49.728Z,96.61
2023-01-21T11:33:23.350Z,99.00
2023-01-21T11:35:50.917Z,95.65
2023-01-21T11:38:25.913Z,97.05
2023-01-21T11:41:07.473Z,100.00
2023-01-21T11:43:36.809Z,100.00
2023-01-21T11:46:26.340Z,100.00
2023-01-21T11:48:54.990Z,98.39
2023-01-21T11:51:22.491Z,99.11
2023-01-21T11:53:49.937Z,97.01
2023-01-21T11:56:17.697Z,93.88
2023-01-21T11:58:45.259Z,92.23
2023-01-21T12:01:20.405Z,88.43
2023-01-21T12:03:51.508Z,88.31
2023-01-21T12:06:19.213Z,87.65
2023-01-21T12:08:49.231Z,85.14
2023-01-21T12:11:18.661Z,89.02
2023-01-21T12:13:47.084Z,87.04
2023-01-21T12:16:35.278Z,89.38
2023-01-21T12:19:16.406Z,84.39
2023-01-21T12:21:47.634Z,86.03
2023-01-21T12:24:18.808Z,90.99
2023-01-21T12:26:46.695Z,90.11
2023-01-21T12:29:22.837Z,90.55
2023-01-21T12:31:52.027Z,88.96
2023-01-21T12:34:22.600Z,92.41
2023-01-21T12:36:50.907Z,94.87
2023-01-21T12:39:19.886Z,91.75
2023-01-21T12:41:48.349Z,91.40
2023-01-21T12:44:17.759Z,89.58
2023-01-21T12:46:45.714Z,97.02
2023-01-21T12:49:15.414Z,94.98
2023-01-21T12:51:44.621Z,91.83
2023-01-21T12:54:14.955Z,91.57
2023-01-21T12:56:43.354Z,88.56
2023-01-21T12:59:13.179Z,85.72
2023-01-21T13:01:42.342Z,84.92
2023-01-21T13:04:15.680Z,86.99
2023-01-21T13:06:53.596Z,86.86
2023-01-21T13:09:23.379Z,86.87
2023-01-21T13:11:51.742Z,91.39
2023-01-21T13:14:22.554Z,93.33
2023-01-21T13:16:50.640Z,93.24
2023-01-21T13:19:18.164Z,100.00
2023-01-21T13:21:48.874Z,100.00
2023-01-21T13:24:17.045Z,100.00
2023-01-21T13:26:46.556Z,100.00
2023-01-21T13:29:15.667Z,100.00
2023-01-21T13:31:45.285Z,96.41
2023-01-21T13:34:13.934Z,100.00
2023-01-21T13:36:46.778Z,99.62
2023-01-21T13:39:17.756Z,100.00
2023-01-21T13:41:50.736Z,98.09
2023-01-21T13:44:31.095Z,96.34
2023-01-21T13:47:00.851Z,97.83
2023-01-21T13:49:38.381Z,97.07
2023-01-21T13:52:07.387Z,97.20
2023-01-21T13:54:40.456Z,100.00
2023-01-21T13:57:10.807Z,100.00
2023-01-21T13:59:39.381Z,98.96
2023-01-21T14:02:07.853Z,96.84
2023-01-21T14:04:36.401Z,98.91
2023-01-21T14:07:05.048Z,95.92
2023-01-21T14:09:34.949Z,96.33
2023-01-21T14:12:06.517Z,98.76
2023-01-21T14:14:58.181Z,95.47
2023-01-21T14:17:31.915Z,98.34
2023-01-21T14:20:27.656Z,96.76
2023-01-21T14:23:08.205Z,98.30
2023-01-21T14:25:38.165Z,93.26
2023-01-21T14:28:10.035Z,95.78
2023-01-21T14:30:39.812Z,98.03
2023-01-21T14:33:08.743Z,100.00
2023-01-21T14:35:37.212Z,99.57
2023-01-21T14:38:07.015Z,100.00
2023-01-21T14:40:35.027Z,96.84
2023-01-21T14:43:02.524Z,98.08
2023-01-21T14:45:48.760Z,99.15
2023-01-21T14:48:30.011Z,96.39
2023-01-21T14:51:10.248Z,93.47
2023-01-21T14:53:43.107Z,98.16
2023-01-21T14:56:16.120Z,98.06
2023-01-21T14:58:45.818Z,100.00
2023-01-21T15:01:24.981Z,100.00
2023-01-21T15:03:53.896Z,100.00
2023-01-21T15:06:22.514Z,100.00
2023-01-21T15:08:50.349Z,100.00
2023-01-21T15:11:19.508Z,100.00
2023-01-21T15:13:47.027Z,100.00
2023-01-21T15:16:15.960Z,100.00
2023-01-21T15:18:48.431Z,100.00
2023-01-21T15:21:35.772Z,100.00
2023-01-21T15:24:19.698Z,100.00
2023-01-21T15:27:02.207Z,100.00
2023-01-21T15:29:34.620Z,100.00
2023-01-21T15:32:22.890Z,100.00
2023-01-21T15:34:51.279Z,100.00
2023-01-21T15:37:20.999Z,100.00
2023-01-21T15:39:49.033Z,100.00
2023-01-21T15:42:19.731Z,100.00
2023-01-21T15:44:49.359Z,100.00
2023-01-21T15:47:23.566Z,100.00
2023-01-21T15:49:53.630Z,100.00
2023-01-21T15:52:26.364Z,100.00
2023-01-21T15:54:55.396Z,100.00
2023-01-21T15:57:34.958Z,100.00
2023-01-21T16:00:04.937Z,100.00
2023-01-21T16:02:32.907Z,100.00
2023-01-21T16:05:15.614Z,100.00
2023-01-21T16:07:47.772Z,100.00
2023-01-21T16:10:17.171Z,100.00
2023-01-21T16:12:48.198Z,100.00
2023-01-21T16:15:17.266Z,100.00
2023-01-21T16:17:49.649Z,100.00
2023-01-21T16:20:17.523Z,100.00
2023-01-21T16:22:45.446Z,100.00
2023-01-21T16:25:14.897Z,100.00
2023-01-21T16:27:46.131Z,100.00
2023-01-21T16:30:14.611Z,100.00
2023-01-21T16:32:42.323Z,100.00
2023-01-21T16:35:10.218Z,100.00
2023-01-21T16:37:37.792Z,100.00
2023-01-21T16:40:23.206Z,100.00
2023-01-21T16:42:52.033Z,100.00
2023-01-21T16:45:20.514Z,100.00
2023-01-21T16:47:53.697Z,100.00
2023-01-21T16:50:21.623Z,100.00
2023-01-21T16:52:49.178Z,100.00
2023-01-21T16:55:19.121Z,100.00
2023-01-21T16:57:49.323Z,100.00
2023-01-21T17:00:23.976Z,100.00
2023-01-21T17:02:51.543Z,100.00
2023-01-21T17:05:19.532Z,100.00
2023-01-21T17:07:48.093Z,100.00
2023-01-21T17:10:19.761Z,100.00
2023-01-21T17:12:47.861Z,100.00
2023-01-21T17:15:18.067Z,100.00
2023-01-21T17:17:47.070Z,100.00
2023-01-21T17:20:33.893Z,100.00
2023-01-21T17:23:02.831Z,100.00
2023-01-21T17:25:30.344Z,100.00
2023-01-21T17:27:57.864Z,100.00
2023-01-21T17:30:27.579Z,100.00
2023-01-21T17:32:57.076Z,100.00
2023-01-21T17:35:24.961Z,100.00
2023-01-21T17:37:53.365Z,100.00
2023-01-21T17:40:31.131Z,100.00
2023-01-21T17:42:58.863Z,100.00
2023-01-21T17:45:30.738Z,100.00
2023-01-21T17:48:14.968Z,100.00
2023-01-21T17:50:45.708Z,100.00
2023-01-21T17:53:15.359Z,100.00
2023-01-21T17:55:43.525Z,100.00
2023-01-21T17:58:25.872Z,100.00
2023-01-21T18:00:53.369Z,100.00
2023-01-21T18:03:22.197Z,100.00
2023-01-21T18:05:50.072Z,100.00
2023-01-21T18:08:18.295Z,100.00
2023-01-21T18:10:46.348Z,100.00
2023-01-21T18:13:14.085Z,100.00
2023-01-21T18:15:43.053Z,100.00
2023-01-21T18:18:14.557Z,100.00
2023-01-21T18:20:43.444Z,100.00
2023-01-21T18:23:11.109Z,100.00
2023-01-21T18:25:38.670Z,100.00
2023-01-21T18:28:07.625Z,100.00
2023-01-21T18:30:35.163Z,100.00
2023-01-21T18:33:02.689Z,100.00
2023-01-21T18:35:30.358Z,100.00
2023-01-21T18:37:59.177Z,100.00
2023-01-21T18:40:26.715Z,100.00
2023-01-21T18:42:55.511Z,100.00
2023-01-21T18:45:23.449Z,100.00
2023-01-21T18:47:51.605Z,100.00
2023-01-21T18:50:19.986Z,100.00
2023-01-21T18:52:47.533Z,100.00
2023-01-21T18:55:17.038Z,100.00
2023-01-21T18:57:45.356Z,100.00
2023-01-21T19:00:16.491Z,100.00
2023-01-21T19:02:44.109Z,100.00
2023-01-21T19:05:11.642Z,100.00
2023-01-21T19:07:39.136Z,100.00
2023-01-21T19:10:07.255Z,100.00
2023-01-21T19:12:36.140Z,100.00
2023-01-21T19:15:04.931Z,100.00
2023-01-21T19:17:33.259Z,100.00
2023-01-21T19:20:00.799Z,100.00
2023-01-21T19:22:28.433Z,100.00
2023-01-21T19:24:55.971Z,100.00
2023-01-21T19:27:24.210Z,100.00
2023-01-21T19:29:53.100Z,100.00
2023-01-21T19:32:20.692Z,100.00
2023-01-21T19:34:48.282Z,100.00
2023-01-21T19:37:15.953Z,100.00
2023-01-21T19:39:43.501Z,100.00
2023-01-21T19:42:11.352Z,100.00
2023-01-21T19:44:40.299Z,100.00
2023-01-21T19:47:10.695Z,100.00
2023-01-21T19:49:38.170Z,100.00
2023-01-21T19:52:06.419Z,100.00
2023-01-21T19:54:33.951Z,100.00
2023-01-21T19:57:01.474Z,100.00
2023-01-21T19:59:29.031Z,100.00
2023-01-21T20:01:56.655Z,100.00
2023-01-21T20:04:25.495Z,100.00
2023-01-21T20:06:53.006Z,100.00
2023-01-21T20:09:20.511Z,100.00
2023-01-21T20:11:47.967Z,100.00
2023-01-21T20:14:15.525Z,100.00
2023-01-21T20:16:45.946Z,100.00
2023-01-21T20:19:15.764Z,100.00
2023-01-21T20:21:55.034Z,100.00
2023-01-21T20:24:30.160Z,100.00
2023-01-21T20:26:57.834Z,100.00
2023-01-21T20:29:26.883Z,100.00
2023-01-21T20:31:54.735Z,100.00
2023-01-21T20:34:22.547Z,100.00
2023-01-21T20:36:51.889Z,100.00
2023-01-21T20:39:19.545Z,100.00
2023-01-21T20:41:47.084Z,100.00
2023-01-21T20:44:14.583Z,100.00
2023-01-21T20:46:43.325Z,100.00
2023-01-21T20:49:10.847Z,100.00
2023-01-21T20:51:38.344Z,100.00
2023-01-21T20:54:07.240Z,100.00
2023-01-21T20:56:34.798Z,100.00
2023-01-21T20:59:02.246Z,100.00
2023-01-21T21:01:31.128Z,100.00
2023-01-21T21:03:58.625Z,100.00
2023-01-21T21:06:27.611Z,100.00
2023-01-21T21:08:55.200Z,100.00
2023-01-21T21:11:24.098Z,100.00
2023-01-21T21:13:52.406Z,100.00
2023-01-21T21:16:20.954Z,100.00
2023-01-21T21:18:48.693Z,100.00
2023-01-21T21:21:16.208Z,100.00
2023-01-21T21:23:46.560Z,100.00
2023-01-21T21:26:18.457Z,100.00
2023-01-21T21:28:47.749Z,100.00
2023-01-21T21:31:15.758Z,100.00
2023-01-21T21:33:43.346Z,100.00
2023-01-21T21:36:14.959Z,100.00
2023-01-21T21:38:42.724Z,100.00
2023-01-21T21:41:31.903Z,100.00
2023-01-21T21:44:00.874Z,100.00
2023-01-21T21:46:48.022Z,100.00
2023-01-21T21:49:15.635Z,100.00
2023-01-21T21:51:45.419Z,100.00
2023-01-21T21:54:14.192Z,100.00
2023-01-21T21:56:41.714Z,100.00
2023-01-21T21:59:11.256Z,100.00
2023-01-21T22:01:38.773Z,100.00
2023-01-21T22:04:06.310Z,100.00
2023-01-21T22:06:33.841Z,100.00
2023-01-21T22:09:01.359Z,100.00
2023-01-21T22:11:29.059Z,100.00
2023-01-21T22:13:56.947Z,100.00
2023-01-21T22:16:26.204Z,100.00
2023-01-21T22:18:53.864Z,100.00
2023-01-21T22:21:22.198Z,100.00
2023-01-21T22:23:49.789Z,100.00
2023-01-21T22:26:17.817Z,100.00
2023-01-21T22:28:45.507Z,100.00
2023-01-21T22:31:14.116Z,100.00
2023-01-21T22:33:43.057Z,100.00
2023-01-21T22:36:11.718Z,100.00
2023-01-21T22:38:40.733Z,100.00
2023-01-21T22:41:08.551Z,100.00
2023-01-21T22:43:36.045Z,100.00
2023-01-21T22:46:03.517Z,100.00
2023-01-21T22:48:31.734Z,100.00
2023-01-21T22:51:01.249Z,100.00
2023-01-21T22:53:29.008Z,100.00
2023-01-21T22:55:56.961Z,100.00
2023-01-21T22:58:24.534Z,100.00
2023-01-21T23:00:52.205Z,100.00
2023-01-21T23:03:20.610Z,100.00
2023-01-21T23:05:48.142Z,100.00
2023-01-21T23:08:17.083Z,100.00
2023-01-21T23:10:44.637Z,100.00
2023-01-21T23:13:12.188Z,100.00
2023-01-21T23:15:42.534Z,100.00
2023-01-21T23:18:10.087Z,100.00
2023-01-21T23:20:37.589Z,100.00
2023-01-21T23:23:05.082Z,100.00
2023-01-21T23:25:33.868Z,100.00
2023-01-21T23:28:01.840Z,100.00
2023-01-21T23:30:30.072Z,100.00
2023-01-21T23:32:57.534Z,100.00
2023-01-21T23:35:25.025Z,100.00
2023-01-21T23:37:52.497Z,100.00
2023-01-21T23:40:20.231Z,100.00
2023-01-21T23:42:49.517Z,100.00
2023-01-21T23:45:17.057Z,100.00
2023-01-21T23:47:44.575Z,100.00
2023-01-21T23:50:12.329Z,100.00
2023-01-21T23:52:40.248Z,100.00
2023-01-21T23:55:08.472Z,100.00
2023-01-21T23:57:36.061Z,100.00
